Aviation Digital Data Service (ADDS)

Output produced by METARs form (2157 UTC 24 March 2019)
found at http://www.aviationweather.gov/metar/data/
 
TAF SBAT 241600Z 2418/2506 36005KT 8000 SCT030 FEW035TCU TX31/2419Z TN21/2505Z 
     PROB40 
     TEMPO 2418/2422 TS SCT030 FEW040CB 
     BECMG 2423/2501 FEW020 RMK PFD
       
TAF SBAN 241600Z 2418/2506 08007KT 8000 FEW040TCU TX26/2418Z TN19/2503Z 
     PROB40 
     TEMPO 2418/2424 TS VCSH BKN030 FEW040CB 
     BECMG 2500/2502 NSC RMK PDB
       
TAF SBAR 241600Z 2418/2506 13010KT 9999 SCT020 FEW025TCU TX31/2418Z TN25/2503Z 
     PROB40 
     TEMPO 2500/2503 01005KT 9999 TS SCT017 FEW025CB 
     BECMG 2503/2505 24008KT SCT015 RMK PEQ
       
TAF SBBW 241600Z 2418/2506 15005KT 8000 NSC TX33/2418Z TN23/2504Z 
     PROB40 
     TEMPO 2418/2424 TS VCSH FEW030CB RMK PDB
       
TAF SBBU 241500Z 2418/2506 09006KT 9999 SCT040 TX33/2418Z TN22/2506Z 
     BECMG 2421/2423 12004KT CAVOK RMK PER
       
TAF SBBE 241600Z 2418/2518 02008KT 8000 SCT020 FEW025TCU TX28/2419Z TN24/2508Z 
     PROB40 
     TEMPO 2418/2420 4000 TSRA SCT008 BKN015 FEW025CB 
     BECMG 2420/2422 SCT018 
     BECMG 2422/2424 04005KT 
     BECMG 2504/2506 SCT010 
     PROB30 2506/2510 4000 BR 
     BECMG 2515/2517 01008KT SCT020 FEW030TCU RMK PFD
       
TAF SBCF 241600Z 2418/2518 09007KT 9999 BKN040 TX28/2418Z TN18/2509Z 
     BECMG 2420/2422 8000 NSC 
     BECMG 2504/2506 14005KT 
     BECMG 2508/2510 18005KT 
     BECMG 2514/2516 07007KT RMK PDB
       
TAF SBBV 241600Z 2418/2518 09008KT 9999 SCT035 TX35/2419Z TN26/2510Z 
     BECMG 2423/2501 CAVOK 
     BECMG 2511/2513 09013KT 
     BECMG 2514/2516 SCT035 
     BECMG 2516/2518 09008KT RMK PFD
       
TAF SBLP 241600Z 2418/2506 15005KT 9999 SCT020 TX30/2418Z TN24/2505Z 
     PROB30 2418/2420 TS SCT020 FEW025CB RMK PEQ
       
TAF SBBR 241600Z 2418/2518 07005KT 8000 FEW040TCU TX26/2418Z TN21/2507Z 
     PROB40 
     TEMPO 2418/2424 TS VCSH BKN030 FEW040CB 
     BECMG 2500/2502 NSC 
     PROB40 
     TEMPO 2506/2512 BKN007 
     BECMG 2513/2515 BKN030 FEW040TCU RMK PDB
       
TAF SBCB 241500Z 2418/2518 06010KT 9999 FEW025 TN22/2509Z TX30/2517Z 
     BECMG 2421/2423 04005KT 
     BECMG 2514/2516 13010KT RMK PGU
       
TAF SBKG 241600Z 2418/2506 05012KT 9999 SCT045 TX32/2418Z TN23/2504Z 
     PROB30 
     TEMPO 2419/2422 TS SCT025 FEW030CB 
     BECMG 2502/2504 25003KT FEW015 RMK PEQ
       
TAF SBKP 242134Z 2500/2524 12010KT CAVOK TN19/2509Z TX31/2517Z 
     BECMG 2508/2510 09005KT 
     BECMG 2512/2514 29007KT SCT045 
     PROB30 2518/2520 SHRA BKN035 FEW045TCU 
     BECMG 2522/2524 17005KT CAVOK RMK PHM
       
TAF SBCG 241500Z 2418/2518 10007KT 9999 FEW030 TX33/2418Z TN21/2509Z 
     BECMG 2421/2423 CAVOK 
     BECMG 2513/2515 9999 FEW030 RMK PER
       
TAF SBCP 241500Z 2418/2506 13010KT 9999 SCT025 TX30/2418Z TN25/2506Z 
     BECMG 2422/2424 20005KT RMK PGU
       
TAF SBCR 241500Z 2418/2518 15007KT 9999 FEW030 TX35/2418Z TN23/2508Z 
     BECMG 2420/2422 10004KT CAVOK 
     BECMG 2512/2514 9999 FEW030 RMK PER
       
TAF SBCY 241600Z 2418/2518 18005KT 9999 SCT020 TX34/2419Z TN26/2508Z 
     BECMG 2500/2502 20003KT CAVOK 
     PROB30 2511/2513 BKN010 
     BECMG 2513/2515 17005KT SCT020 
     BECMG 2516/2518 8000 SCT020 FEW025TCU RMK PFD
       
TAF SBCT 241500Z 2418/2518 27005KT 9999 SCT030 TX27/2418Z TN15/2509Z 
     BECMG 2422/2424 09005KT BKN006 
     BECMG 2510/2512 34007KT SCT030 RMK PER
       
TAF SBBI 241500Z 2418/2506 27005KT 9999 SCT035 TX28/2418Z TN18/2506Z 
     BECMG 2422/2424 09005KT BKN006 RMK PER
       
TAF SBFN 241600Z 2418/2506 11007KT 9999 SCT017 TX31/2418Z TN24/2505Z 
     PROB40 
     TEMPO 2419/2421 6000 RA SCT015 FEW025TCU 
     BECMG 2423/2501SCT015 RMK PEQ
       
TAF SBFL 241500Z 2418/2518 01009KT CAVOK TX29/2418Z TN21/2508Z 
     BECMG 2421/2423 9999 SCT030 RMK PER
       
TAF SBFZ 241600Z 2418/2518 33008KT 4000 RA BKN012 FEW025TCU TN24/2508Z
TX28/2517Z 
     BECMG 2511/2513 9999 SCT020 
     BECMG 2515/2517 SCT015FEW025TCU RMK PEQ
       
TAF SBFI 241500Z 2418/2518 11005KT 9999 SCT030 TX31/2418Z TN19/2509Z 
     BECMG 2420/2422 CAVOK 
     PROB40 
     TEMPO 2508/2510 0500 FG OVC002 RMK PER
       
TAF SBGO 241600Z 2418/2518 12005KT 8000 FEW045TCU TX30/2418Z TN23/250 7Z 
     PROB40 
     TEMPO 2418/2424 VCSH 
     BECMG 2500/2502 NSC 
     PROB40 
     TEMPO 2506/25 12 SCT010 
     BECMG 2514/2516 BKN030 FEW040TCU RMK PDB
       
TAF SBGW 241500Z 2418/2506 13005KT 9999 SCT020 TX31/2418Z TN22/2506Z 
     BECMG 2422/2424 VRB04KT FEW017 RMK PER
       
TAF SBIL 241600Z 2418/2506 07010KT 5000 TSRA SCT020 FEW025CB TX31/2418Z
TN25/2503Z 
     BECMG 2420/2422 9999 SCT017 FEW025TCU RMK PEQ
       
TAF SBIZ 241600Z 2418/2506 01003KT 8000 SCT015 TX33/2419Z TN25/2505Z 
     PROB30 
     TEMPO 2422/2424 TS SCT015 FEW025CB 
     BECMG 2500/2502 CAVOK 
     BECMG 2503/2505 03003KT 8000 SCT010 RMK PFD
       
TAF SBIH 241600Z 2418/2506 08008KT 8000 SCT020 FEW025TCU TX31/2419Z TN22/2505Z 
     BECMG 2419/2421 SCT023 
     BECMG 2503/2505 SCT008 RMK PFD